Wetterdaten: Woche 01.01.07 - 07.01.07 (KW1)
Datum Zeit Temperatur Luftfeuchte Luftdruck Niederschlag Wind Richtung Sonnenschein UV-Strahlung Solar Taupunkt Windchill Windben
01.01.2007 00:00 7.3 C 94 % 1027.2 hPa 0.0 l/m 2.7 km/h (1 Bft) O-SO 0.00 h 0.0 UV-I 0 W/m 6.4 C 7.1 C 4.9 km/h (1 Bft)
01.01.2007 01:00 10.6 C 88 % 1026.2 hPa 0.8 l/m 6.5 km/h (2 Bft) W-SW 0.00 h 0.0 UV-I 0 W/m 8.7 C 10.5 C 12.9 km/h (3 Bft)
01.01.2007 02:00 11.0 C 92 % 1025.5 hPa 1.4 l/m 6.8 km/h (2 Bft) W-SW 0.00 h 0.0 UV-I 0 W/m 9.7 C 11.0 C 12.6 km/h (3 Bft)
01.01.2007 03:00 10.9 C 93 % 1024.9 hPa 2.6 l/m 6.1 km/h (2 Bft) W-SW 0.00 h 0.0 UV-I 0 W/m 9.9 C 10.9 C 10.9 km/h (2 Bft)
01.01.2007 04:00 10.8 C 94 % 1024.3 hPa 1.8 l/m 6.5 km/h (2 Bft) W-SW 0.00 h 0.0 UV-I 0 W/m 9.9 C 10.8 C 11.8 km/h (2 Bft)
01.01.2007 05:00 10.8 C 93 % 1023.6 hPa 1.4 l/m 8.2 km/h (2 Bft) W-SW 0.00 h 0.0 UV-I 0 W/m 9.7 C 10.8 C 14.4 km/h (3 Bft)
01.01.2007 06:00 11.0 C 91 % 1022.7 hPa 2.6 l/m 9.7 km/h (2 Bft) W-SW 0.00 h 0.0 UV-I 0 W/m 9.6 C 11.0 C 17.0 km/h (3 Bft)
01.01.2007 07:00 10.7 C 92 % 1022.9 hPa 3.0 l/m 9.1 km/h (2 Bft) W-SW 0.00 h 0.0 UV-I 0 W/m 9.5 C 10.7 C 14.4 km/h (3 Bft)
01.01.2007 08:00 10.3 C 95 % 1022.6 hPa 3.8 l/m 5.6 km/h (1 Bft) W-SW 0.00 h 0.0 UV-I 6 W/m 9.5 C 10.3 C 10.1 km/h (2 Bft)
01.01.2007 09:00 10.1 C 94 % 1022.3 hPa 1.4 l/m 7.9 km/h (2 Bft) SW 0.00 h 0.0 UV-I 15 W/m 9.2 C 9.9 C 15.7 km/h (3 Bft)
01.01.2007 10:00 10.2 C 91 % 1021.6 hPa 0.4 l/m 11.6 km/h (2 Bft) SW 0.00 h 0.0 UV-I 18 W/m 8.8 C 9.9 C 20.6 km/h (4 Bft)
01.01.2007 11:00 9.9 C 93 % 1022.0 hPa 3.8 l/m 12.0 km/h (2 Bft) W-SW 0.00 h 0.0 UV-I 20 W/m 8.9 C 8.7 C 19.2 km/h (3 Bft)
01.01.2007 12:00 9.2 C 77 % 1022.4 hPa 0.2 l/m 25.2 km/h (4 Bft) W 0.00 h 0.5 UV-I 44 W/m 5.5 C 6.0 C 37.1 km/h (5 Bft)
01.01.2007 13:00 8.5 C 81 % 1022.8 hPa 0.8 l/m 18.0 km/h (3 Bft) W 0.00 h 0.0 UV-I 26 W/m 5.4 C 5.8 C 27.3 km/h (4 Bft)
01.01.2007 14:00 9.1 C 73 % 1023.8 hPa 0.0 l/m 22.8 km/h (4 Bft) W 0.00 h 0.0 UV-I 29 W/m 4.4 C 6.0 C 34.6 km/h (5 Bft)
01.01.2007 15:00 7.8 C 81 % 1025.1 hPa 1.6 l/m 20.3 km/h (4 Bft) W 0.00 h 0.0 UV-I 21 W/m 4.8 C 4.7 C 30.7 km/h (5 Bft)
01.01.2007 16:00 6.7 C 91 % 1025.8 hPa 0.0 l/m 6.7 km/h (2 Bft) W 0.00 h 0.0 UV-I 10 W/m 5.3 C 5.6 C 11.3 km/h (2 Bft)
01.01.2007 17:00 6.7 C 87 % 1025.7 hPa 0.0 l/m 6.1 km/h (2 Bft) W 0.00 h 0.0 UV-I 0 W/m 4.7 C 5.7 C 9.8 km/h (2 Bft)
01.01.2007 18:00 7.0 C 80 % 1025.2 hPa 0.0 l/m 7.5 km/h (2 Bft) W 0.00 h 0.0 UV-I 0 W/m 3.8 C 5.7 C 11.6 km/h (2 Bft)
01.01.2007 19:00 6.2 C 84 % 1024.1 hPa 0.0 l/m 2.8 km/h (1 Bft) O 0.00 h 0.0 UV-I 0 W/m 3.6 C 5.9 C 4.3 km/h (1 Bft)
01.01.2007 20:00 5.0 C 89 % 1023.0 hPa 0.0 l/m 3.0 km/h (1 Bft) O-SO 0.00 h 0.0 UV-I 0 W/m 3.3 C 4.3 C 4.0 km/h (1 Bft)
01.01.2007 21:00 3.9 C 92 % 1021.8 hPa 0.0 l/m 2.3 km/h (1 Bft) SO 0.00 h 0.0 UV-I 0 W/m 2.8 C 3.7 C 4.1 km/h (1 Bft)
01.01.2007 22:00 3.8 C 93 % 1020.9 hPa 0.0 l/m 3.1 km/h (1 Bft) O-SO 0.00 h 0.0 UV-I 0 W/m 2.8 C 3.4 C 4.5 km/h (1 Bft)
01.01.2007 23:00 3.6 C 93 % 1019.5 hPa 0.0 l/m 0.2 km/h (0 Bft) O 0.00 h 0.0 UV-I 0 W/m 2.6 C 3.6 C 0.7 km/h (0 Bft)
02.01.2007 00:00 3.5 C 96 % 1018.7 hPa 0.8 l/m 1.8 km/h (1 Bft) S-SO 0.00 h 0.0 UV-I 0 W/m 2.9 C 3.3 C 3.4 km/h (1 Bft)
02.01.2007 01:00 3.7 C 94 % 1019.2 hPa 1.6 l/m 8.5 km/h (2 Bft) S 0.00 h 0.0 UV-I 0 W/m 2.8 C 1.6 C 16.0 km/h (3 Bft)
02.01.2007 02:00 2.8 C 93 % 1019.1 hPa 1.0 l/m 8.6 km/h (2 Bft) SW 0.00 h 0.0 UV-I 0 W/m 1.8 C 0.5 C 17.6 km/h (3 Bft)
02.01.2007 03:00 2.7 C 95 % 1019.1 hPa 1.6 l/m 5.2 km/h (1 Bft) S-SW 0.00 h 0.0 UV-I 0 W/m 1.9 C 1.6 C 11.1 km/h (2 Bft)
02.01.2007 04:00 2.7 C 95 % 1018.9 hPa 2.0 l/m 6.2 km/h (2 Bft) SW 0.00 h 0.0 UV-I 0 W/m 2.0 C 1.1 C 11.9 km/h (2 Bft)
02.01.2007 05:00 3.1 C 95 % 1019.1 hPa 2.6 l/m 21.9 km/h (4 Bft) W 0.00 h 0.0 UV-I 0 W/m 2.3 C -1.4 C 33.5 km/h (5 Bft)
02.01.2007 06:00 3.6 C 92 % 1020.1 hPa 1.2 l/m 30.4 km/h (5 Bft) W 0.00 h 0.0 UV-I 0 W/m 2.4 C -1.8 C 47.1 km/h (6 Bft)
02.01.2007 07:00 4.0 C 86 % 1021.5 hPa 0.2 l/m 31.2 km/h (5 Bft) W 0.00 h 0.0 UV-I 0 W/m 1.9 C -1.3 C 48.0 km/h (6 Bft)
02.01.2007 08:00 3.8 C 84 % 1024.1 hPa 0.0 l/m 27.2 km/h (4 Bft) W 0.00 h 0.0 UV-I 16 W/m 1.3 C -1.2 C 41.4 km/h (6 Bft)
02.01.2007 09:00 3.8 C 81 % 1025.8 hPa 0.0 l/m 23.3 km/h (4 Bft) W 0.00 h 0.0 UV-I 33 W/m 0.9 C -0.9 C 34.7 km/h (5 Bft)
02.01.2007 10:00 4.3 C 79 % 1027.0 hPa 0.0 l/m 18.7 km/h (3 Bft) W 0.00 h 0.5 UV-I 64 W/m 0.9 C 0.4 C 28.5 km/h (4 Bft)
02.01.2007 11:00 4.1 C 82 % 1027.3 hPa 0.0 l/m 15.6 km/h (3 Bft) W 0.05 h 0.8 UV-I 103 W/m 1.2 C 0.6 C 24.6 km/h (4 Bft)
02.01.2007 12:00 4.0 C 83 % 1027.0 hPa 0.0 l/m 13.8 km/h (3 Bft) W 0.03 h 0.7 UV-I 88 W/m 1.4 C 0.8 C 22.1 km/h (4 Bft)
02.01.2007 13:00 3.7 C 88 % 1026.3 hPa 0.2 l/m 2.9 km/h (1 Bft) S 0.00 h 0.7 UV-I 65 W/m 1.9 C 3.5 C 5.8 km/h (2 Bft)
02.01.2007 14:00 3.2 C 89 % 1026.2 hPa 0.4 l/m 2.1 km/h (1 Bft) S 0.00 h 0.0 UV-I 24 W/m 1.6 C 3.1 C 4.8 km/h (1 Bft)
02.01.2007 15:00 3.3 C 90 % 1026.6 hPa 0.2 l/m 7.1 km/h (2 Bft) W-SW 0.00 h 0.0 UV-I 17 W/m 1.8 C 1.6 C 12.2 km/h (2 Bft)
02.01.2007 16:00 3.7 C 88 % 1026.8 hPa 0.6 l/m 9.9 km/h (2 Bft) W 0.00 h 0.0 UV-I 9 W/m 1.9 C 1.4 C 15.7 km/h (3 Bft)
02.01.2007 17:00 3.0 C 92 % 1026.9 hPa 1.2 l/m 2.3 km/h (1 Bft) W-SW 0.00 h 0.0 UV-I 0 W/m 1.8 C 2.7 C 4.6 km/h (1 Bft)
02.01.2007 18:00 2.5 C 94 % 1027.0 hPa 0.0 l/m 2.8 km/h (1 Bft) S-SO 0.00 h 0.0 UV-I 0 W/m 1.7 C 2.2 C 5.5 km/h (1 Bft)
02.01.2007 19:00 2.8 C 95 % 1027.2 hPa 1.4 l/m 2.7 km/h (1 Bft) W-SW 0.00 h 0.0 UV-I 0 W/m 2.0 C 2.4 C 5.6 km/h (1 Bft)
02.01.2007 20:00 2.4 C 94 % 1027.7 hPa 1.0 l/m 4.6 km/h (1 Bft) S 0.00 h 0.0 UV-I 0 W/m 1.5 C 1.5 C 8.9 km/h (2 Bft)
02.01.2007 21:00 3.2 C 92 % 1028.3 hPa 0.0 l/m 16.1 km/h (3 Bft) W 0.00 h 0.0 UV-I 0 W/m 2.0 C -0.6 C 25.2 km/h (4 Bft)
02.01.2007 22:00 3.6 C 88 % 1029.6 hPa 0.0 l/m 17.2 km/h (3 Bft) W 0.00 h 0.0 UV-I 0 W/m 1.8 C -0.2 C 26.3 km/h (4 Bft)
02.01.2007 23:00 3.7 C 87 % 1030.2 hPa 0.0 l/m 12.4 km/h (3 Bft) W 0.00 h 0.0 UV-I 0 W/m 1.7 C 0.7 C 19.5 km/h (3 Bft)
03.01.2007 00:00 3.7 C 86 % 1030.5 hPa 0.0 l/m 2.6 km/h (1 Bft) W-NW 0.00 h 0.0 UV-I 0 W/m 1.6 C 3.2 C 4.9 km/h (1 Bft)
03.01.2007 01:00 3.5 C 88 % 1031.0 hPa 0.0 l/m 1.5 km/h (1 Bft) S-SO 0.00 h 0.0 UV-I 0 W/m 1.7 C 3.3 C 3.6 km/h (1 Bft)
03.01.2007 02:00 3.3 C 90 % 1031.6 hPa 0.2 l/m 1.9 km/h (1 Bft) W-SW 0.00 h 0.0 UV-I 0 W/m 1.8 C 3.3 C 4.2 km/h (1 Bft)
03.01.2007 03:00 3.0 C 93 % 1031.9 hPa 0.0 l/m 2.5 km/h (1 Bft) S-SO 0.00 h 0.0 UV-I 0 W/m 2.0 C 2.8 C 5.2 km/h (1 Bft)
03.01.2007 04:00 3.2 C 93 % 1032.1 hPa 0.0 l/m 1.7 km/h (1 Bft) S-SO 0.00 h 0.0 UV-I 0 W/m 2.1 C 3.1 C 4.1 km/h (1 Bft)
03.01.2007 05:00 3.6 C 91 % 1032.4 hPa 0.0 l/m 2.2 km/h (1 Bft) W 0.00 h 0.0 UV-I 0 W/m 2.3 C 3.3 C 4.5 km/h (1 Bft)
03.01.2007 06:00 4.0 C 90 % 1032.8 hPa 0.0 l/m 7.0 km/h (2 Bft) W 0.00 h 0.0 UV-I 0 W/m 2.5 C 2.5 C 12.1 km/h (2 Bft)
03.01.2007 07:00 4.2 C 88 % 1033.6 hPa 0.0 l/m 2.6 km/h (1 Bft) SO 0.00 h 0.0 UV-I 0 W/m 2.4 C 3.9 C 5.2 km/h (1 Bft)
03.01.2007 08:00 3.8 C 90 % 1034.4 hPa 0.0 l/m 1.5 km/h (1 Bft) S-SO 0.00 h 0.0 UV-I 6 W/m 2.3 C 3.8 C 3.7 km/h (1 Bft)
03.01.2007 09:00 3.7 C 91 % 1035.3 hPa 0.0 l/m 1.9 km/h (1 Bft) S-SW 0.00 h 0.0 UV-I 11 W/m 2.4 C 3.7 C 4.7 km/h (1 Bft)
03.01.2007 10:00 3.9 C 92 % 1035.5 hPa 0.0 l/m 2.6 km/h (1 Bft) S-SO 0.07 h 0.5 UV-I 72 W/m 2.7 C 3.6 C 5.5 km/h (1 Bft)
03.01.2007 11:00 5.1 C 86 % 1035.5 hPa 0.0 l/m 4.9 km/h (1 Bft) W-SW 0.12 h 0.6 UV-I 105 W/m 2.9 C 4.2 C 8.2 km/h (2 Bft)
03.01.2007 12:00 6.2 C 80 % 1035.0 hPa 0.0 l/m 4.7 km/h (1 Bft) W-SW 0.40 h 0.8 UV-I 211 W/m 3.0 C 5.5 C 8.0 km/h (2 Bft)
03.01.2007 13:00 6.5 C 77 % 1034.1 hPa 0.0 l/m 2.2 km/h (1 Bft) W-SW 0.40 h 0.7 UV-I 162 W/m 2.8 C 6.3 C 4.6 km/h (1 Bft)
03.01.2007 14:00 6.7 C 72 % 1033.4 hPa 0.0 l/m 4.3 km/h (1 Bft) W 0.00 h 0.5 UV-I 81 W/m 1.9 C 6.2 C 7.5 km/h (2 Bft)
03.01.2007 15:00 6.5 C 72 % 1033.2 hPa 0.0 l/m 2.5 km/h (1 Bft) W-NW 0.00 h 0.5 UV-I 45 W/m 1.7 C 6.3 C 4.6 km/h (1 Bft)
03.01.2007 16:00 5.8 C 78 % 1032.8 hPa 0.0 l/m 0.4 km/h (0 Bft) W-SW 0.27 h 0.0 UV-I 19 W/m 2.3 C 5.8 C 1.4 km/h (1 Bft)
03.01.2007 17:00 5.4 C 81 % 1032.2 hPa 0.0 l/m 1.2 km/h (1 Bft) S-SO 0.00 h 0.0 UV-I 0 W/m 2.4 C 5.4 C 3.2 km/h (1 Bft)
03.01.2007 18:00 5.1 C 83 % 1031.5 hPa 0.0 l/m 1.3 km/h (1 Bft) S 0.00 h 0.0 UV-I 0 W/m 2.5 C 5.1 C 3.9 km/h (1 Bft)
03.01.2007 19:00 5.0 C 83 % 1030.9 hPa 0.0 l/m 1.3 km/h (1 Bft) S-SW 0.00 h 0.0 UV-I 0 W/m 2.4 C 5.0 C 4.3 km/h (1 Bft)
03.01.2007 20:00 4.9 C 84 % 1030.3 hPa 0.0 l/m 1.6 km/h (1 Bft) S-SW 0.00 h 0.0 UV-I 0 W/m 2.4 C 4.8 C 4.1 km/h (1 Bft)
03.01.2007 21:00 4.8 C 86 % 1029.9 hPa 0.0 l/m 1.5 km/h (1 Bft) SW 0.00 h 0.0 UV-I 0 W/m 2.5 C 4.8 C 4.0 km/h (1 Bft)
03.01.2007 22:00 4.8 C 85 % 1029.1 hPa 0.0 l/m 2.2 km/h (1 Bft) S-SW 0.00 h 0.0 UV-I 0 W/m 2.5 C 4.7 C 5.2 km/h (1 Bft)
03.01.2007 23:00 4.7 C 86 % 1028.1 hPa 0.0 l/m 2.2 km/h (1 Bft) S-SO 0.00 h 0.0 UV-I 0 W/m 2.6 C 4.7 C 5.5 km/h (1 Bft)
04.01.2007 00:00 4.7 C 85 % 1027.3 hPa 0.0 l/m 1.6 km/h (1 Bft) S-SO 0.00 h 0.0 UV-I 0 W/m 2.3 C 4.6 C 3.8 km/h (1 Bft)
04.01.2007 01:00 4.5 C 84 % 1026.2 hPa 0.0 l/m 1.9 km/h (1 Bft) SW 0.00 h 0.0 UV-I 0 W/m 2.1 C 4.4 C 5.3 km/h (1 Bft)
04.01.2007 02:00 4.6 C 83 % 1025.3 hPa 0.0 l/m 3.0 km/h (1 Bft) SW 0.00 h 0.0 UV-I 0 W/m 1.9 C 4.3 C 6.7 km/h (2 Bft)
04.01.2007 03:00 4.5 C 83 % 1024.3 hPa 0.0 l/m 3.2 km/h (1 Bft) SW 0.00 h 0.0 UV-I 0 W/m 1.9 C 4.2 C 6.8 km/h (2 Bft)
04.01.2007 04:00 4.5 C 83 % 1023.1 hPa 0.0 l/m 1.8 km/h (1 Bft) SW 0.00 h 0.0 UV-I 0 W/m 1.9 C 4.4 C 4.9 km/h (1 Bft)
04.01.2007 05:00 4.1 C 86 % 1022.1 hPa 0.0 l/m 0.7 km/h (0 Bft) N-NW 0.00 h 0.0 UV-I 0 W/m 2.0 C 4.1 C 2.3 km/h (1 Bft)
04.01.2007 06:00 3.3 C 90 % 1021.4 hPa 0.0 l/m 0.5 km/h (0 Bft) N-NW 0.00 h 0.0 UV-I 0 W/m 1.8 C 3.3 C 1.4 km/h (1 Bft)
04.01.2007 07:00 3.1 C 91 % 1020.9 hPa 0.0 l/m 1.2 km/h (1 Bft) NW 0.00 h 0.0 UV-I 0 W/m 1.8 C 3.0 C 2.7 km/h (1 Bft)
04.01.2007 08:00 2.8 C 93 % 1020.5 hPa 0.0 l/m 1.0 km/h (0 Bft) O-SO 0.00 h 0.0 UV-I 9 W/m 1.8 C 2.7 C 2.4 km/h (1 Bft)
04.01.2007 09:00 3.7 C 88 % 1019.8 hPa 0.0 l/m 2.9 km/h (1 Bft) S 0.00 h 0.0 UV-I 26 W/m 2.0 C 3.5 C 6.2 km/h (2 Bft)
04.01.2007 10:00 5.4 C 80 % 1019.5 hPa 0.0 l/m 3.4 km/h (1 Bft) S-SW 0.18 h 0.6 UV-I 103 W/m 2.2 C 5.1 C 8.1 km/h (2 Bft)
04.01.2007 11:00 6.5 C 72 % 1019.3 hPa 0.0 l/m 4.3 km/h (1 Bft) SW 0.00 h 0.6 UV-I 70 W/m 1.8 C 6.0 C 8.7 km/h (2 Bft)
04.01.2007 12:00 5.9 C 85 % 1019.0 hPa 0.8 l/m 2.0 km/h (1 Bft) W-NW 0.00 h 0.5 UV-I 68 W/m 3.5 C 5.8 C 4.3 km/h (1 Bft)
04.01.2007 13:00 5.6 C 92 % 1018.6 hPa 0.2 l/m 2.3 km/h (1 Bft) W-NW 0.00 h 0.6 UV-I 43 W/m 4.5 C 5.6 C 4.4 km/h (1 Bft)
04.01.2007 14:00 6.1 C 95 % 1018.2 hPa 0.0 l/m 4.0 km/h (1 Bft) SW 0.00 h 0.5 UV-I 35 W/m 5.3 C 5.7 C 8.6 km/h (2 Bft)
04.01.2007 15:00 6.2 C 91 % 1018.3 hPa 0.8 l/m 6.1 km/h (2 Bft) SW 0.00 h 0.0 UV-I 16 W/m 4.8 C 5.2 C 12.4 km/h (3 Bft)
04.01.2007 16:00 6.1 C 93 % 1018.8 hPa 0.8 l/m 6.6 km/h (2 Bft) W-SW 0.00 h 0.0 UV-I 5 W/m 5.1 C 4.8 C 11.6 km/h (2 Bft)
04.01.2007 17:00 6.8 C 89 % 1019.0 hPa 0.0 l/m 8.4 km/h (2 Bft) W-SW 0.00 h 0.0 UV-I 0 W/m 5.0 C 5.3 C 13.4 km/h (3 Bft)
04.01.2007 18:00 6.7 C 88 % 1019.4 hPa 0.4 l/m 3.0 km/h (1 Bft) S 0.00 h 0.0 UV-I 0 W/m 4.9 C 6.5 C 6.4 km/h (2 Bft)
04.01.2007 19:00 6.2 C 92 % 1019.9 hPa 0.8 l/m 3.4 km/h (1 Bft) W-SW 0.00 h 0.0 UV-I 0 W/m 5.0 C 5.8 C 6.4 km/h (2 Bft)
04.01.2007 20:00 6.1 C 94 % 1020.6 hPa 0.0 l/m 4.9 km/h (1 Bft) W-SW 0.00 h 0.0 UV-I 0 W/m 5.2 C 5.4 C 8.8 km/h (2 Bft)
04.01.2007 21:00 6.7 C 87 % 1020.9 hPa 0.0 l/m 8.2 km/h (2 Bft) W-SW 0.00 h 0.0 UV-I 0 W/m 4.8 C 5.2 C 13.5 km/h (3 Bft)
04.01.2007 22:00 6.7 C 86 % 1021.1 hPa 0.0 l/m 8.5 km/h (2 Bft) W 0.00 h 0.0 UV-I 0 W/m 4.6 C 5.1 C 14.5 km/h (3 Bft)
04.01.2007 23:00 6.8 C 84 % 1021.7 hPa 0.0 l/m 10.8 km/h (2 Bft) W 0.00 h 0.0 UV-I 0 W/m 4.3 C 4.7 C 17.3 km/h (3 Bft)
05.01.2007 00:00 7.1 C 81 % 1022.1 hPa 0.0 l/m 15.8 km/h (3 Bft) W 0.00 h 0.0 UV-I 0 W/m 4.0 C 4.3 C 24.7 km/h (4 Bft)
05.01.2007 01:00 7.2 C 80 % 1022.7 hPa 0.0 l/m 15.6 km/h (3 Bft) W 0.00 h 0.0 UV-I 0 W/m 4.0 C 4.4 C 24.0 km/h (4 Bft)
05.01.2007 02:00 6.5 C 86 % 1023.3 hPa 0.4 l/m 14.4 km/h (3 Bft) W 0.00 h 0.0 UV-I 0 W/m 4.3 C 3.7 C 22.6 km/h (4 Bft)
05.01.2007 03:00 5.9 C 90 % 1024.0 hPa 0.0 l/m 4.8 km/h (1 Bft) W-SW 0.00 h 0.0 UV-I 0 W/m 4.3 C 5.2 C 8.7 km/h (2 Bft)
05.01.2007 04:00 5.8 C 89 % 1024.2 hPa 0.0 l/m 3.5 km/h (1 Bft) W-SW 0.00 h 0.0 UV-I 0 W/m 4.2 C 5.5 C 6.8 km/h (2 Bft)
05.01.2007 05:00 5.8 C 88 % 1024.5 hPa 0.0 l/m 3.7 km/h (1 Bft) SW 0.00 h 0.0 UV-I 0 W/m 4.0 C 5.4 C 7.1 km/h (2 Bft)
05.01.2007 06:00 5.7 C 87 % 1024.9 hPa 0.0 l/m 1.9 km/h (1 Bft) SW 0.00 h 0.0 UV-I 0 W/m 3.8 C 5.6 C 4.6 km/h (1 Bft)
05.01.2007 07:00 5.4 C 87 % 1025.4 hPa 0.0 l/m 2.4 km/h (1 Bft) S 0.00 h 0.0 UV-I 0 W/m 3.4 C 5.3 C 5.5 km/h (1 Bft)
05.01.2007 08:00 5.2 C 87 % 1025.9 hPa 0.0 l/m 4.9 km/h (1 Bft) S 0.28 h 0.0 UV-I 19 W/m 3.2 C 4.5 C 8.8 km/h (2 Bft)
05.01.2007 09:00 5.4 C 86 % 1026.4 hPa 0.0 l/m 3.2 km/h (1 Bft) SW 0.00 h 0.0 UV-I 47 W/m 3.2 C 5.1 C 6.7 km/h (2 Bft)
05.01.2007 10:00 6.3 C 82 % 1026.9 hPa 0.0 l/m 2.1 km/h (1 Bft) W-SW 0.00 h 0.5 UV-I 61 W/m 3.4 C 6.2 C 4.8 km/h (1 Bft)
05.01.2007 11:00 6.7 C 79 % 1026.9 hPa 0.0 l/m 1.5 km/h (1 Bft) W 0.00 h 0.5 UV-I 51 W/m 3.4 C 6.7 C 3.8 km/h (1 Bft)
05.01.2007 12:00 6.6 C 82 % 1026.9 hPa 0.0 l/m 1.5 km/h (1 Bft) S 0.00 h 0.0 UV-I 44 W/m 3.7 C 6.5 C 4.1 km/h (1 Bft)
05.01.2007 13:00 6.3 C 83 % 1026.6 hPa 0.0 l/m 3.0 km/h (1 Bft) S 0.00 h 0.5 UV-I 46 W/m 3.7 C 6.2 C 7.0 km/h (2 Bft)
05.01.2007 14:00 6.4 C 83 % 1026.7 hPa 0.0 l/m 2.2 km/h (1 Bft) S 0.00 h 0.0 UV-I 39 W/m 3.7 C 6.4 C 5.2 km/h (1 Bft)
05.01.2007 15:00 6.5 C 83 % 1026.9 hPa 0.0 l/m 2.9 km/h (1 Bft) S 0.00 h 0.0 UV-I 21 W/m 3.8 C 6.4 C 6.5 km/h (2 Bft)
05.01.2007 16:00 6.5 C 83 % 1027.2 hPa 0.0 l/m 2.2 km/h (1 Bft) S 0.00 h 0.0 UV-I 9 W/m 3.8 C 6.5 C 5.4 km/h (1 Bft)
05.01.2007 17:00 6.6 C 82 % 1027.3 hPa 0.0 l/m 1.8 km/h (1 Bft) S 0.00 h 0.0 UV-I 0 W/m 3.6 C 6.5 C 3.9 km/h (1 Bft)
05.01.2007 18:00 6.7 C 82 % 1027.5 hPa 0.0 l/m 5.1 km/h (1 Bft) W-NW 0.00 h 0.0 UV-I 0 W/m 3.8 C 5.9 C 8.1 km/h (2 Bft)
05.01.2007 19:00 6.8 C 81 % 1027.6 hPa 0.0 l/m 8.2 km/h (2 Bft) W-NW 0.00 h 0.0 UV-I 0 W/m 3.9 C 5.3 C 13.0 km/h (3 Bft)
05.01.2007 20:00 6.7 C 79 % 1027.9 hPa 0.0 l/m 1.5 km/h (1 Bft) W-SW 0.00 h 0.0 UV-I 0 W/m 3.3 C 6.7 C 3.7 km/h (1 Bft)
05.01.2007 21:00 6.6 C 79 % 1028.0 hPa 0.0 l/m 1.0 km/h (0 Bft) SW 0.00 h 0.0 UV-I 0 W/m 3.3 C 6.6 C 2.9 km/h (1 Bft)
05.01.2007 22:00 6.2 C 81 % 1028.0 hPa 0.0 l/m 1.5 km/h (1 Bft) S 0.00 h 0.0 UV-I 0 W/m 3.3 C 6.1 C 4.1 km/h (1 Bft)
05.01.2007 23:00 5.8 C 83 % 1027.9 hPa 0.0 l/m 3.6 km/h (1 Bft) SW 0.00 h 0.0 UV-I 0 W/m 3.1 C 5.5 C 7.6 km/h (2 Bft)
06.01.2007 00:00 5.7 C 83 % 1027.9 hPa 0.0 l/m 3.1 km/h (1 Bft) S-SO 0.00 h 0.0 UV-I 0 W/m 3.0 C 5.5 C 6.4 km/h (2 Bft)
06.01.2007 01:00 5.5 C 83 % 1027.5 hPa 0.0 l/m 3.4 km/h (1 Bft) S 0.00 h 0.0 UV-I 0 W/m 2.8 C 5.2 C 7.9 km/h (2 Bft)
06.01.2007 02:00 5.1 C 84 % 1027.6 hPa 0.0 l/m 5.9 km/h (2 Bft) S 0.00 h 0.0 UV-I 0 W/m 2.6 C 3.9 C 11.8 km/h (2 Bft)
06.01.2007 03:00 5.1 C 84 % 1027.7 hPa 0.0 l/m 4.0 km/h (1 Bft) S-SW 0.00 h 0.0 UV-I 0 W/m 2.6 C 4.5 C 8.7 km/h (2 Bft)
06.01.2007 04:00 5.2 C 84 % 1027.5 hPa 0.0 l/m 3.1 km/h (1 Bft) S-SW 0.00 h 0.0 UV-I 0 W/m 2.8 C 5.0 C 7.4 km/h (2 Bft)
06.01.2007 05:00 5.5 C 84 % 1027.4 hPa 0.0 l/m 4.3 km/h (1 Bft) S-SW 0.00 h 0.0 UV-I 0 W/m 2.9 C 4.9 C 9.8 km/h (2 Bft)
06.01.2007 06:00 5.6 C 83 % 1027.2 hPa 0.0 l/m 5.9 km/h (2 Bft) S 0.00 h 0.0 UV-I 0 W/m 3.0 C 4.6 C 12.0 km/h (2 Bft)
06.01.2007 07:00 5.6 C 82 % 1027.2 hPa 0.0 l/m 4.2 km/h (1 Bft) SW 0.00 h 0.0 UV-I 0 W/m 2.8 C 5.1 C 9.1 km/h (2 Bft)
06.01.2007 08:00 5.9 C 82 % 1027.0 hPa 0.0 l/m 3.8 km/h (1 Bft) SW 0.03 h 0.0 UV-I 15 W/m 3.0 C 5.5 C 8.1 km/h (2 Bft)
06.01.2007 09:00 6.2 C 81 % 1027.2 hPa 0.0 l/m 2.7 km/h (1 Bft) S-SW 0.00 h 0.0 UV-I 46 W/m 3.2 C 6.1 C 5.8 km/h (2 Bft)
06.01.2007 10:00 6.7 C 80 % 1027.3 hPa 0.0 l/m 3.8 km/h (1 Bft) S 0.00 h 0.5 UV-I 78 W/m 3.4 C 6.3 C 8.1 km/h (2 Bft)
06.01.2007 11:00 7.0 C 79 % 1026.9 hPa 0.0 l/m 5.7 km/h (1 Bft) S 0.17 h 0.8 UV-I 108 W/m 3.6 C 6.2 C 11.6 km/h (2 Bft)
06.01.2007 12:00 8.4 C 76 % 1026.1 hPa 0.0 l/m 5.1 km/h (1 Bft) S-SO 0.73 h 0.9 UV-I 219 W/m 4.3 C 7.8 C 10.6 km/h (2 Bft)
06.01.2007 13:00 8.6 C 75 % 1025.4 hPa 0.0 l/m 5.2 km/h (1 Bft) S-SW 0.02 h 0.7 UV-I 111 W/m 4.4 C 8.1 C 10.5 km/h (2 Bft)
06.01.2007 14:00 8.5 C 75 % 1024.9 hPa 0.0 l/m 4.8 km/h (1 Bft) S 0.00 h 0.6 UV-I 75 W/m 4.4 C 8.1 C 10.2 km/h (2 Bft)
06.01.2007 15:00 8.4 C 76 % 1024.6 hPa 0.0 l/m 3.5 km/h (1 Bft) S 0.00 h 0.5 UV-I 45 W/m 4.5 C 8.2 C 7.7 km/h (2 Bft)
06.01.2007 16:00 8.2 C 77 % 1024.3 hPa 0.0 l/m 2.8 km/h (1 Bft) S-SW 0.00 h 0.0 UV-I 14 W/m 4.3 C 8.1 C 6.3 km/h (2 Bft)
06.01.2007 17:00 7.9 C 78 % 1024.0 hPa 0.0 l/m 4.3 km/h (1 Bft) S 0.00 h 0.0 UV-I 0 W/m 4.2 C 7.5 C 9.1 km/h (2 Bft)
06.01.2007 18:00 7.4 C 79 % 1024.0 hPa 0.0 l/m 4.7 km/h (1 Bft) S 0.00 h 0.0 UV-I 0 W/m 4.0 C 6.9 C 10.1 km/h (2 Bft)
06.01.2007 19:00 7.4 C 79 % 1023.5 hPa 0.0 l/m 6.3 km/h (2 Bft) S-SO 0.00 h 0.0 UV-I 0 W/m 4.0 C 6.4 C 11.9 km/h (2 Bft)
06.01.2007 20:00 7.2 C 80 % 1023.2 hPa 0.0 l/m 3.4 km/h (1 Bft) S-SO 0.00 h 0.0 UV-I 0 W/m 3.9 C 6.9 C 6.9 km/h (2 Bft)
06.01.2007 21:00 7.2 C 81 % 1022.9 hPa 0.0 l/m 1.6 km/h (1 Bft) N-NO 0.00 h 0.0 UV-I 0 W/m 4.0 C 7.1 C 4.1 km/h (1 Bft)
06.01.2007 22:00 7.8 C 80 % 1022.3 hPa 0.0 l/m 3.3 km/h (1 Bft) SW 0.00 h 0.0 UV-I 0 W/m 4.5 C 7.6 C 7.1 km/h (2 Bft)
06.01.2007 23:00 7.3 C 83 % 1021.9 hPa 0.0 l/m 2.4 km/h (1 Bft) N-NW 0.00 h 0.0 UV-I 0 W/m 4.6 C 7.1 C 5.0 km/h (1 Bft)
07.01.2007 00:00 7.5 C 85 % 1021.6 hPa 1.4 l/m 2.1 km/h (1 Bft) N 0.00 h 0.0 UV-I 0 W/m 5.1 C 7.4 C 4.6 km/h (1 Bft)
07.01.2007 01:00 6.8 C 93 % 1021.3 hPa 2.0 l/m 2.2 km/h (1 Bft) N 0.00 h 0.0 UV-I 0 W/m 5.7 C 6.6 C 4.7 km/h (1 Bft)
07.01.2007 02:00 6.8 C 95 % 1021.4 hPa 1.0 l/m 2.3 km/h (1 Bft) S 0.00 h 0.0 UV-I 0 W/m 6.1 C 6.7 C 4.1 km/h (1 Bft)
07.01.2007 03:00 7.7 C 97 % 1021.7 hPa 0.6 l/m 3.9 km/h (1 Bft) S 0.00 h 0.0 UV-I 0 W/m 7.3 C 7.4 C 8.0 km/h (2 Bft)
07.01.2007 04:00 8.4 C 97 % 1021.8 hPa 0.8 l/m 9.4 km/h (2 Bft) W 0.00 h 0.0 UV-I 0 W/m 7.9 C 7.1 C 15.3 km/h (3 Bft)
07.01.2007 05:00 9.2 C 92 % 1022.0 hPa 0.0 l/m 16.4 km/h (3 Bft) W 0.00 h 0.0 UV-I 0 W/m 8.0 C 6.9 C 26.3 km/h (4 Bft)
07.01.2007 06:00 9.2 C 88 % 1022.7 hPa 0.0 l/m 11.6 km/h (2 Bft) W 0.00 h 0.0 UV-I 0 W/m 7.3 C 7.5 C 19.2 km/h (3 Bft)
07.01.2007 07:00 9.2 C 85 % 1023.2 hPa 0.0 l/m 9.0 km/h (2 Bft) W 0.00 h 0.0 UV-I 0 W/m 6.8 C 8.0 C 14.9 km/h (3 Bft)
07.01.2007 08:00 9.1 C 86 % 1023.6 hPa 0.0 l/m 8.1 km/h (2 Bft) W-SW 0.00 h 0.0 UV-I 6 W/m 6.9 C 7.9 C 13.2 km/h (3 Bft)
07.01.2007 09:00 8.7 C 89 % 1023.9 hPa 0.0 l/m 2.5 km/h (1 Bft) W-SW 0.00 h 0.0 UV-I 22 W/m 6.9 C 8.6 C 5.4 km/h (1 Bft)
07.01.2007 10:00 8.7 C 86 % 1024.3 hPa 0.0 l/m 10.2 km/h (2 Bft) W 0.00 h 0.6 UV-I 63 W/m 6.4 C 7.1 C 16.5 km/h (3 Bft)
07.01.2007 11:00 8.9 C 79 % 1024.4 hPa 0.0 l/m 11.0 km/h (2 Bft) W 0.03 h 0.7 UV-I 117 W/m 5.5 C 7.2 C 16.9 km/h (3 Bft)
07.01.2007 12:00 8.9 C 73 % 1024.2 hPa 0.0 l/m 9.4 km/h (2 Bft) W 0.00 h 0.8 UV-I 114 W/m 4.4 C 7.5 C 14.4 km/h (3 Bft)
07.01.2007 13:00 9.1 C 71 % 1023.4 hPa 0.0 l/m 6.1 km/h (2 Bft) W 0.12 h 0.8 UV-I 133 W/m 4.1 C 8.4 C 9.5 km/h (2 Bft)
07.01.2007 14:00 9.2 C 72 % 1022.8 hPa 0.0 l/m 3.7 km/h (1 Bft) W-NW 0.05 h 0.6 UV-I 94 W/m 4.5 C 8.9 C 6.2 km/h (2 Bft)
07.01.2007 15:00 9.2 C 73 % 1022.5 hPa 0.0 l/m 0.9 km/h (0 Bft) W-SW 0.40 h 0.5 UV-I 74 W/m 4.6 C 9.2 C 2.7 km/h (1 Bft)
07.01.2007 16:00 8.2 C 78 % 1022.1 hPa 0.0 l/m 2.0 km/h (1 Bft) S-SO 0.05 h 0.0 UV-I 20 W/m 4.7 C 8.1 C 3.7 km/h (1 Bft)
07.01.2007 17:00 6.8 C 86 % 1022.1 hPa 0.0 l/m 2.8 km/h (1 Bft) O 0.00 h 0.0 UV-I 0 W/m 4.7 C 6.7 C 4.6 km/h (1 Bft)
07.01.2007 18:00 6.2 C 92 % 1021.9 hPa 0.4 l/m 4.7 km/h (1 Bft) O-SO 0.00 h 0.0 UV-I 0 W/m 5.0 C 5.6 C 6.6 km/h (2 Bft)
07.01.2007 19:00 6.1 C 94 % 1021.5 hPa 0.0 l/m 2.9 km/h (1 Bft) O-SO 0.00 h 0.0 UV-I 0 W/m 5.2 C 5.8 C 4.5 km/h (1 Bft)
07.01.2007 20:00 6.0 C 95 % 1021.1 hPa 0.0 l/m 1.4 km/h (1 Bft) O-SO 0.00 h 0.0 UV-I 0 W/m 5.4 C 6.0 C 2.4 km/h (1 Bft)
07.01.2007 21:00 5.8 C 95 % 1020.8 hPa 0.0 l/m 0.0 km/h (0 Bft) N 0.00 h 0.0 UV-I 0 W/m 5.1 C 5.8 C 0.0 km/h (0 Bft)
07.01.2007 22:00 5.1 C 95 % 1020.4 hPa 0.0 l/m 0.2 km/h (0 Bft) O-SO 0.00 h 0.0 UV-I 0 W/m 4.4 C 5.1 C 0.5 km/h (0 Bft)
07.01.2007 23:00 5.0 C 96 % 1020.1 hPa 0.0 l/m 0.0 km/h (0 Bft) O-SO 0.00 h 0.0 UV-I 0 W/m 4.5 C 5.0 C 0.3 km/h (0 Bft)
Min-Datum _ 02.01.07 04.01.07 04.01.07 - 01.01.07 - - - - 04.01.07 02.01.07 01.01.07
_ Min-Zeit 20:35 11:51 14:15 - 00:02 - - - - 11:51 05:46 00:40
Minimum _ 2.1 C 63 % 1018.2 hPa - 0.0 km/h (0 Bft) - - - - 0.4 C -2.9 C 0.0 km/h (0 Bft)
Max-Datum _ 01.01.07 07.01.07 03.01.07 01.01.07 02.01.07 - 02.01.07 06.01.07 03.01.07 01.01.07 01.01.07 02.01.07
_ Max-Zeit 01:29 04:37 11:00 08:00 06:51 - 11:12 12:52 12:20 03:46 01:29 07:43
Maximum _ 11.8 C 98 % 1035.8 hPa 3.8 l/m 49.6 km/h
W (6 Bft)
- 0.02 h 1.1 UV-I 443 W/m 10.1 C 11.8 C 77.5 km/h
W (9 Bft)
Durchschnitt _ 6.1 C 86 % 1025.1 hPa #52.2 l/m 5.9 km/h (2 Bft) W #3:24 h 0.6 UV-I 54 W/m 3.9 C 5.3 C 10.3 km/h (2 Bft)
© Kaiko 2007